Time,TemperatureF,DewpointF,PressureIn,WindDirection,WindDirectionDegrees,WindSpeedMPH,WindSpeedGustMPH,Humidity,HourlyPrecipIn,Conditions,Clouds,dailyrainin,SolarRadiationWatts/m^2,SoftwareType,DateUTC
2013-11-01 00:02:00,41.0,39.0,-100.00,NW,307,5.0,8.0,92,0.00,,,-99.99,0.000000,,2013-11-01 06:02:00,
2013-11-01 00:12:00,41.0,39.0,-100.00,NW,307,5.0,8.0,92,0.00,,,-99.99,0.000000,,2013-11-01 06:12:00,
2013-11-01 00:21:00,41.0,39.0,-100.00,NW,307,5.0,8.0,92,0.00,,,-99.99,0.000000,,2013-11-01 06:21:00,
2013-11-01 00:52:00,41.0,39.0,-100.00,West,267,7.0,9.0,91,0.00,,,-99.99,0.000000,,2013-11-01 06:52:00,
2013-11-01 01:02:00,41.0,39.0,-100.00,West,267,7.0,9.0,91,0.00,,,-99.99,0.000000,,2013-11-01 07:02:00,
2013-11-01 01:12:00,41.0,39.0,-100.00,West,267,7.0,9.0,91,0.00,,,-99.99,0.000000,,2013-11-01 07:12:00,
2013-11-01 01:21:00,41.0,39.0,-100.00,West,267,7.0,9.0,91,0.00,,,-99.99,0.000000,,2013-11-01 07:21:00,
2013-11-01 01:52:00,41.0,39.0,-100.00,WNW,284,5.0,8.0,91,0.00,,,-99.99,0.000000,,2013-11-01 07:52:00,
2013-11-01 02:02:00,41.0,39.0,-100.00,WNW,284,5.0,8.0,91,0.00,,,-99.99,0.000000,,2013-11-01 08:02:00,
2013-11-01 02:11:00,41.0,39.0,-100.00,WNW,284,5.0,8.0,91,0.00,,,-99.99,0.000000,,2013-11-01 08:11:00,
2013-11-01 02:21:00,41.0,39.0,-100.00,WNW,284,5.0,8.0,91,0.00,,,-99.99,0.000000,,2013-11-01 08:21:00,
2013-11-01 02:52:00,41.0,39.0,-100.00,WNW,286,6.0,8.0,93,0.00,,,-99.99,0.000000,,2013-11-01 08:52:00,
2013-11-01 03:02:00,41.0,39.0,-100.00,WNW,286,6.0,8.0,93,0.00,,,-99.99,0.000000,,2013-11-01 09:02:00,
2013-11-01 03:11:00,41.0,39.0,-100.00,WNW,286,6.0,8.0,93,0.00,,,-99.99,0.000000,,2013-11-01 09:11:00,
2013-11-01 03:21:00,41.0,39.0,-100.00,WNW,286,6.0,8.0,93,0.00,,,-99.99,0.000000,,2013-11-01 09:21:00,
2013-11-01 03:53:00,42.0,39.0,-100.00,WNW,293,11.0,13.0,89,0.00,,,-99.99,0.000000,,2013-11-01 09:53:00,
2013-11-01 04:03:00,42.0,39.0,-100.00,WNW,293,11.0,13.0,89,0.00,,,-99.99,0.000000,,2013-11-01 10:03:00,
2013-11-01 04:13:00,42.0,39.0,-100.00,WNW,293,11.0,13.0,89,0.00,,,-99.99,0.000000,,2013-11-01 10:13:00,
2013-11-01 04:23:00,42.0,39.0,-100.00,WNW,293,11.0,13.0,89,0.00,,,-99.99,0.000000,,2013-11-01 10:23:00,
2013-11-01 04:53:00,40.0,38.0,-100.00,WNW,297,9.0,14.0,91,0.00,,,-99.99,0.000000,,2013-11-01 10:53:00,
2013-11-01 05:02:00,40.0,38.0,-100.00,WNW,297,9.0,14.0,91,0.00,,,-99.99,0.000000,,2013-11-01 11:02:00,
2013-11-01 05:12:00,40.0,38.0,-100.00,WNW,297,9.0,14.0,91,0.00,,,-99.99,0.000000,,2013-11-01 11:12:00,
2013-11-01 05:21:00,40.0,38.0,-100.00,WNW,297,9.0,14.0,91,0.00,,,-99.99,0.000000,,2013-11-01 11:21:00,
2013-11-01 05:52:00,38.0,37.0,-100.00,West,277,6.0,12.0,95,0.00,,,-99.99,0.000000,,2013-11-01 11:52:00,
2013-11-01 06:02:00,38.0,37.0,-100.00,West,277,6.0,12.0,95,0.00,,,-99.99,0.000000,,2013-11-01 12:02:00,
2013-11-01 06:11:00,38.0,37.0,-100.00,West,277,6.0,12.0,95,0.00,,,-99.99,0.000000,,2013-11-01 12:11:00,
2013-11-01 06:22:00,38.0,37.0,-100.00,West,277,6.0,12.0,95,0.00,,,-99.99,0.000000,,2013-11-01 12:22:00,
2013-11-01 06:52:00,36.0,35.0,-100.00,WNW,283,4.0,8.0,96,0.00,,,-99.99,0.000000,,2013-11-01 12:52:00,
2013-11-01 07:01:00,36.0,35.0,-100.00,WNW,283,4.0,8.0,96,0.00,,,-99.99,0.000000,,2013-11-01 13:01:00,
2013-11-01 07:12:00,36.0,35.0,-100.00,WNW,283,4.0,8.0,96,0.00,,,-99.99,0.000000,,2013-11-01 13:12:00,
2013-11-01 07:22:00,36.0,35.0,-100.00,WNW,283,4.0,8.0,96,0.00,,,-99.99,0.000000,,2013-11-01 13:22:00,
2013-11-01 07:52:00,34.0,33.0,-100.00,ESE,102,3.0,6.0,97,0.00,,,-99.99,0.000000,,2013-11-01 13:52:00,
2013-11-01 08:02:00,34.0,33.0,-100.00,ESE,102,3.0,6.0,97,0.00,,,-99.99,0.000000,,2013-11-01 14:02:00,
2013-11-01 08:11:00,34.0,33.0,-100.00,ESE,102,3.0,6.0,97,0.00,,,-99.99,0.000000,,2013-11-01 14:11:00,
2013-11-01 08:21:00,34.0,33.0,-100.00,ESE,102,3.0,6.0,97,0.00,,,-99.99,0.000000,,2013-11-01 14:21:00,
2013-11-01 08:52:00,34.0,33.0,-100.00,ENE,63,2.0,4.0,97,0.00,,,-99.99,1.000000,,2013-11-01 14:52:00,
2013-11-01 09:02:00,34.0,33.0,-100.00,ENE,63,2.0,4.0,97,0.00,,,-99.99,1.000000,,2013-11-01 15:02:00,
2013-11-01 09:11:00,34.0,33.0,-100.00,ENE,63,2.0,4.0,97,0.00,,,-99.99,1.000000,,2013-11-01 15:11:00,
2013-11-01 09:21:00,34.0,33.0,-100.00,ENE,63,2.0,4.0,97,0.00,,,-99.99,1.000000,,2013-11-01 15:21:00,
2013-11-01 09:54:00,37.0,36.0,-100.00,ENE,73,3.0,5.0,96,0.00,,,0.00,44.000000,,2013-11-01 15:54:00,
2013-11-01 10:04:00,37.0,36.0,-100.00,ENE,73,3.0,5.0,96,0.00,,,0.00,44.000000,,2013-11-01 16:04:00,
2013-11-01 10:12:00,37.0,36.0,-100.00,ENE,73,3.0,5.0,96,0.00,,,0.00,44.000000,,2013-11-01 16:12:00,
2013-11-01 10:23:00,37.0,36.0,-100.00,ENE,73,3.0,5.0,96,0.00,,,0.00,44.000000,,2013-11-01 16:23:00,
2013-11-01 10:53:00,45.0,40.0,-100.00,South,186,4.0,5.0,82,0.00,,,0.00,224.000000,,2013-11-01 16:53:00,
2013-11-01 11:02:00,45.0,40.0,-100.00,South,186,4.0,5.0,82,0.00,,,0.00,224.000000,,2013-11-01 17:02:00,
2013-11-01 11:12:00,45.0,40.0,-100.00,South,186,4.0,5.0,82,0.00,,,0.00,224.000000,,2013-11-01 17:12:00,
2013-11-01 11:22:00,45.0,40.0,-100.00,South,186,4.0,5.0,82,0.00,,,0.00,224.000000,,2013-11-01 17:22:00,
2013-11-01 11:52:00,53.0,41.0,-100.00,South,176,2.0,5.0,64,0.00,,,0.00,325.000000,,2013-11-01 17:52:00,
2013-11-01 12:01:00,53.0,41.0,-100.00,South,176,2.0,5.0,64,0.00,,,0.00,325.000000,,2013-11-01 18:01:00,
2013-11-01 12:12:00,53.0,41.0,-100.00,South,176,2.0,5.0,64,0.00,,,0.00,325.000000,,2013-11-01 18:12:00,
2013-11-01 12:22:00,53.0,41.0,-100.00,South,176,2.0,5.0,64,0.00,,,0.00,325.000000,,2013-11-01 18:22:00,
2013-11-01 12:52:00,55.0,41.0,-100.00,SSE,168,3.0,5.0,58,0.00,,,0.00,418.000000,,2013-11-01 18:52:00,
2013-11-01 13:01:00,55.0,41.0,-100.00,SSE,168,3.0,5.0,58,0.00,,,0.00,418.000000,,2013-11-01 19:01:00,
2013-11-01 13:12:00,55.0,41.0,-100.00,SSE,168,3.0,5.0,58,0.00,,,0.00,418.000000,,2013-11-01 19:12:00,
2013-11-01 13:21:00,55.0,41.0,-100.00,SSE,168,3.0,5.0,58,0.00,,,0.00,418.000000,,2013-11-01 19:21:00,
2013-11-01 13:52:00,60.0,41.0,-100.00,NW,326,4.0,6.0,49,0.00,,,0.00,529.000000,,2013-11-01 19:52:00,
2013-11-01 14:02:00,60.0,41.0,-100.00,NW,326,4.0,6.0,49,0.00,,,0.00,529.000000,,2013-11-01 20:02:00,
2013-11-01 14:12:00,60.0,41.0,-100.00,NW,326,4.0,6.0,49,0.00,,,0.00,529.000000,,2013-11-01 20:12:00,
2013-11-01 14:22:00,60.0,41.0,-100.00,NW,326,4.0,6.0,49,0.00,,,0.00,529.000000,,2013-11-01 20:22:00,
2013-11-01 14:52:00,61.0,37.0,-100.00,North,0,4.0,18.0,41,0.00,,,0.00,623.000000,,2013-11-01 20:52:00,
2013-11-01 15:01:00,61.0,37.0,-100.00,North,0,4.0,18.0,41,0.00,,,0.00,623.000000,,2013-11-01 21:01:00,
2013-11-01 15:11:00,61.0,37.0,-100.00,North,0,4.0,18.0,41,0.00,,,0.00,623.000000,,2013-11-01 21:11:00,
2013-11-01 15:21:00,61.0,37.0,-100.00,North,0,4.0,18.0,41,0.00,,,0.00,623.000000,,2013-11-01 21:21:00,
2013-11-01 15:55:00,61.0,37.0,-100.00,NW,318,7.0,12.0,41,0.00,,,0.00,479.000000,,2013-11-01 21:55:00,
2013-11-01 16:03:00,61.0,37.0,-100.00,NW,318,7.0,12.0,41,0.00,,,0.00,479.000000,,2013-11-01 22:03:00,
2013-11-01 16:13:00,61.0,37.0,-100.00,NW,318,7.0,12.0,41,0.00,,,0.00,479.000000,,2013-11-01 22:13:00,
2013-11-01 16:24:00,61.0,37.0,-100.00,NW,318,7.0,12.0,41,0.00,,,0.00,479.000000,,2013-11-01 22:24:00,
2013-11-01 16:53:00,61.0,38.0,-100.00,WNW,295,4.0,12.0,42,0.00,,,0.00,375.000000,,2013-11-01 22:53:00,
2013-11-01 17:02:00,61.0,38.0,-100.00,WNW,295,4.0,12.0,42,0.00,,,0.00,375.000000,,2013-11-01 23:02:00,
2013-11-01 17:12:00,61.0,38.0,-100.00,WNW,295,4.0,12.0,42,0.00,,,0.00,375.000000,,2013-11-01 23:12:00,
2013-11-01 17:22:00,61.0,38.0,-100.00,WNW,295,4.0,12.0,42,0.00,,,0.00,375.000000,,2013-11-01 23:22:00,
2013-11-01 17:53:00,61.0,38.0,-100.00,WNW,290,2.0,10.0,42,0.00,,,-99.99,234.000000,,2013-11-01 23:53:00,
2013-11-01 18:02:00,61.0,38.0,-100.00,WNW,290,2.0,10.0,42,0.00,,,-99.99,234.000000,,2013-11-02 00:02:00,
2013-11-01 18:11:00,61.0,38.0,-100.00,WNW,290,2.0,10.0,42,0.00,,,-99.99,234.000000,,2013-11-02 00:11:00,
2013-11-01 18:21:00,61.0,38.0,-100.00,WNW,290,2.0,10.0,42,0.00,,,-99.99,234.000000,,2013-11-02 00:21:00,
2013-11-01 18:52:00,58.0,37.0,-100.00,NNE,27,2.0,5.0,46,0.00,,,0.00,77.000000,,2013-11-02 00:52:00,
2013-11-01 19:02:00,58.0,37.0,-100.00,NNE,27,2.0,5.0,46,0.00,,,0.00,77.000000,,2013-11-02 01:02:00,
2013-11-01 19:11:00,58.0,37.0,-100.00,NNE,27,2.0,5.0,46,0.00,,,0.00,77.000000,,2013-11-02 01:11:00,
2013-11-01 19:21:00,58.0,37.0,-100.00,NNE,27,2.0,5.0,46,0.00,,,0.00,77.000000,,2013-11-02 01:21:00,
2013-11-01 19:52:00,47.0,35.0,-100.00,East,90,3.0,5.0,64,0.00,,,0.00,3.000000,,2013-11-02 01:52:00,
2013-11-01 20:02:00,47.0,35.0,-100.00,East,90,3.0,5.0,64,0.00,,,0.00,3.000000,,2013-11-02 02:02:00,
2013-11-01 20:11:00,47.0,35.0,-100.00,East,90,3.0,5.0,64,0.00,,,0.00,3.000000,,2013-11-02 02:11:00,
2013-11-01 20:22:00,47.0,35.0,-100.00,East,90,3.0,5.0,64,0.00,,,0.00,3.000000,,2013-11-02 02:22:00,
2013-11-01 20:53:00,44.0,35.0,-100.00,NNW,335,2.0,6.0,70,0.00,,,0.00,0.000000,,2013-11-02 02:53:00,
2013-11-01 21:02:00,44.0,35.0,-100.00,NNW,335,2.0,6.0,70,0.00,,,0.00,0.000000,,2013-11-02 03:02:00,
2013-11-01 21:11:00,44.0,35.0,-100.00,NNW,335,2.0,6.0,70,0.00,,,0.00,0.000000,,2013-11-02 03:11:00,
2013-11-01 21:21:00,44.0,35.0,-100.00,NNW,335,2.0,6.0,70,0.00,,,0.00,0.000000,,2013-11-02 03:21:00,
2013-11-01 21:53:00,38.0,32.0,-100.00,NNW,345,6.0,7.0,80,0.00,,,0.00,0.000000,,2013-11-02 03:53:00,
2013-11-01 22:04:00,38.0,32.0,-100.00,NNW,345,6.0,7.0,80,0.00,,,0.00,0.000000,,2013-11-02 04:04:00,
2013-11-01 22:13:00,38.0,32.0,-100.00,NNW,345,6.0,7.0,80,0.00,,,0.00,0.000000,,2013-11-02 04:13:00,
2013-11-01 22:24:00,38.0,32.0,-100.00,NNW,345,6.0,7.0,80,0.00,,,0.00,0.000000,,2013-11-02 04:24:00,
2013-11-01 22:54:00,35.0,31.0,-100.00,North,2,4.0,6.0,84,0.00,,,-99.99,0.000000,,2013-11-02 04:54:00,
2013-11-01 23:04:00,35.0,31.0,-100.00,North,2,4.0,6.0,84,0.00,,,-99.99,0.000000,,2013-11-02 05:04:00,
2013-11-01 23:13:00,35.0,31.0,-100.00,North,2,4.0,6.0,84,0.00,,,-99.99,0.000000,,2013-11-02 05:13:00,
2013-11-01 23:22:00,35.0,31.0,-100.00,North,2,4.0,6.0,84,0.00,,,-99.99,0.000000,,2013-11-02 05:22:00,
2013-11-01 23:52:00,34.0,31.0,-100.00,NW,322,3.0,5.0,89,0.00,,,0.00,0.000000,,2013-11-02 05:52:00,